Time;durP1;ratioP1;P1;durP2;ratioP2;P2;SDS_P1;SDS_P2;PMS_P1;PMS_P2;Temp;Humidity;BMP_temperature;BMP_pressure;BME280_temperature;BME280_humidity;BME280_pressure;Samples;Min_cycle;Max_cycle;Signal;HPM_P1;HPM_P2
2022/08/18 04:03:49;;;;;;;8.80;5.42;;;;;;;21.36;73.60;99970.22;6541090;26;20120;31
2022/08/18 04:06:58;;;;;;;7.70;6.00;;;;;;;21.38;74.63;99976.28;6551930;27;34266;-90
2022/08/18 04:10:01;;;;;;;7.95;5.90;;;;;;;21.44;74.80;99983.47;6554020;27;34044;-88
2022/08/18 04:13:04;;;;;;;6.85;5.43;;;;;;;21.46;75.10;99983.19;6561700;27;33779;-88
2022/08/18 04:16:07;;;;;;;7.95;5.80;;;;;;;21.48;74.94;99983.75;6542499;27;32680;-87
2022/08/18 04:19:12;;;;;;;8.60;6.10;;;;;;;21.55;74.85;99981.62;6563777;27;34169;-87
2022/08/18 04:22:15;;;;;;;9.93;5.65;;;;;;;21.61;74.72;99982.50;6563843;27;34174;-87
2022/08/18 04:25:20;;;;;;;7.82;5.93;;;;;;;21.65;74.81;99983.66;6563451;27;35468;-87
2022/08/18 04:28:23;;;;;;;7.72;5.57;;;;;;;21.71;74.62;99991.66;6560334;27;34400;-87
2022/08/18 04:31:28;;;;;;;8.98;5.60;;;;;;;21.73;74.72;99994.97;6565096;27;33906;-87
2022/08/18 04:34:32;;;;;;;9.70;5.95;;;;;;;21.84;74.38;99990.38;6571073;27;35315;-87
2022/08/18 04:37:38;;;;;;;8.13;5.85;;;;;;;21.92;74.12;99998.12;6566574;27;34244;-87
2022/08/18 04:40:41;;;;;;;7.22;5.87;;;;;;;22.05;73.52;99993.25;6573777;27;35481;-87
2022/08/18 04:43:46;;;;;;;9.50;5.87;;;;;;;22.13;73.34;99987.31;6566505;27;35533;-86
2022/08/18 04:46:51;;;;;;;11.45;6.30;;;;;;;22.20;73.04;99993.44;6571184;27;35513;-87
2022/08/18 04:49:54;;;;;;;11.80;6.12;;;;;;;22.31;72.72;99994.31;6559815;27;34201;-86
2022/08/18 04:56:26;;;;;;;11.27;6.05;;;;;;;22.45;72.12;99991.91;6560155;27;33675;-86
2022/08/18 04:59:28;;;;;;;13.10;5.87;;;;;;;22.52;72.02;99992.50;6561468;27;33812;-86
2022/08/18 05:02:32;;;;;;;8.15;5.80;;;;;;;22.57;71.65;99996.09;6560855;27;34202;-86
2022/08/18 05:05:35;;;;;;;11.63;7.03;;;;;;;22.70;71.12;99994.81;6564296;27;34344;-87
2022/08/18 05:08:38;;;;;;;8.20;5.93;;;;;;;22.97;70.05;99991.09;6567230;27;34339;-86
2022/08/18 05:11:43;;;;;;;9.43;6.50;;;;;;;23.03;69.60;99987.28;6573456;27;34378;-86
2022/08/18 05:14:46;;;;;;;10.30;6.82;;;;;;;23.13;69.11;99990.03;6571133;27;35005;-86
2022/08/18 05:17:49;;;;;;;14.15;6.53;;;;;;;23.24;68.71;99986.22;6542963;27;32392;-87
2022/08/18 05:20:55;;;;;;;11.60;6.82;;;;;;;23.38;68.36;99974.72;6562824;27;33470;-86
2022/08/18 05:23:59;;;;;;;11.38;6.35;;;;;;;23.50;68.02;99978.84;6563846;27;34581;-87
2022/08/18 05:27:03;;;;;;;10.60;5.82;;;;;;;23.61;67.76;99971.44;6566490;27;34092;-86
2022/08/18 05:30:08;;;;;;;10.93;6.35;;;;;;;23.76;67.30;99979.72;6581626;26;34012;-88
2022/08/18 05:33:10;;;;;;;9.77;5.80;;;;;;;23.91;66.84;99984.38;6570644;27;32664;-87
2022/08/18 05:36:37;;;;;;;7.53;5.82;;;;;;;24.08;66.26;99980.53;6591415;27;34275;-88
2022/08/18 05:39:59;;;;;;;9.48;6.12;;;;;;;24.19;65.81;99982.16;6594268;27;34484;-90
2022/08/18 05:43:05;;;;;;;10.30;6.12;;;;;;;24.27;65.55;99989.00;6571531;27;33838;-87
2022/08/18 05:46:10;;;;;;;8.95;6.18;;;;;;;24.36;65.30;99987.34;6591927;27;34449;-87
2022/08/18 05:49:14;;;;;;;8.40;6.18;;;;;;;24.47;64.93;99989.00;6601421;27;35102;-86
2022/08/18 05:52:39;;;;;;;9.38;6.47;;;;;;;24.61;64.57;99992.81;6572494;27;33630;-87
2022/08/18 05:59:37;;;;;;;20.90;7.35;;;;;;;24.86;64.06;99994.66;6593114;27;34333;-87
2022/08/18 06:02:50;;;;;;;11.55;6.90;;;;;;;25.03;63.58;99999.78;6588707;27;35430;-87
2022/08/18 06:05:56;;;;;;;13.48;6.00;;;;;;;25.08;62.99;99994.25;6589944;27;34417;-87
2022/08/18 06:09:12;;;;;;;22.08;7.03;;;;;;;25.22;62.55;99997.25;6594982;27;34332;-87
2022/08/18 06:12:23;;;;;;;9.82;5.93;;;;;;;25.45;61.99;100004.00;6592984;27;34828;-86
2022/08/18 06:15:37;;;;;;;8.55;6.07;;;;;;;25.59;61.25;99998.63;6572601;27;32064;-90
2022/08/18 06:19:18;;;;;;;8.88;6.20;;;;;;;25.73;60.88;99996.06;6593277;27;34260;-86
2022/08/18 06:22:37;;;;;;;20.98;12.18;;;;;;;25.87;60.46;99999.84;6592507;27;34946;-87
2022/08/18 06:26:18;;;;;;;15.68;7.87;;;;;;;25.92;59.69;99998.97;6594514;27;34320;-87
2022/08/18 06:29:40;;;;;;;8.20;5.60;;;;;;;26.16;59.38;99999.84;6565532;27;32544;-85
2022/08/18 06:33:09;;;;;;;12.18;7.20;;;;;;;26.22;58.67;100004.19;6585796;27;34325;-87
2022/08/18 06:36:30;;;;;;;10.15;6.10;;;;;;;26.44;58.20;99997.34;6586115;27;34287;-86
2022/08/18 06:39:38;;;;;;;13.32;6.78;;;;;;;26.51;57.59;99999.81;6558764;27;33534;-86
2022/08/18 06:42:41;;;;;;;11.10;6.28;;;;;;;26.57;57.04;99995.88;6557587;27;33141;-87
2022/08/18 06:45:51;;;;;;;11.20;5.72;;;;;;;26.70;57.10;100000.66;6558898;27;33545;-86
2022/08/18 06:48:58;;;;;;;8.98;6.15;;;;;;;26.91;56.55;99998.47;6558225;27;32593;-88
2022/08/18 06:52:20;;;;;;;12.03;6.27;;;;;;;27.09;55.91;99997.69;6578882;27;34761;-87
2022/08/18 06:55:44;;;;;;;73.00;22.83;;;;;;;27.11;55.55;99992.69;6560350;27;32701;-86
2022/08/18 06:58:47;;;;;;;14.10;6.43;;;;;;;27.34;55.06;99995.72;6570799;27;32635;-88
2022/08/18 07:02:29;;;;;;;540.12;244.95;;;;;;;27.66;53.88;99996.91;6596037;27;34156;-88
2022/08/18 07:05:56;;;;;;;17.25;8.10;;;;;;;27.81;53.74;99989.19;6564118;27;35526;-86
2022/08/18 07:09:22;;;;;;;31.58;15.70;;;;;;;28.00;51.97;99980.03;6579206;27;34350;-86
2022/08/18 07:12:28;;;;;;;27.55;9.98;;;;;;;28.12;51.99;99974.84;6558906;27;33447;-86
2022/08/18 07:15:35;;;;;;;13.85;5.30;;;;;;;28.39;51.04;99974.03;6579260;27;34267;-87
2022/08/18 07:18:38;;;;;;;33.80;17.10;;;;;;;28.35;50.67;99977.75;6578822;27;34657;-89
2022/08/18 07:21:42;;;;;;;15.20;5.85;;;;;;;28.56;49.98;99969.87;6580101;27;35627;-88
2022/08/18 07:24:49;;;;;;;9.45;6.10;;;;;;;28.65;49.89;99963.31;6582203;27;35038;-85
2022/08/18 07:27:54;;;;;;;7.07;5.43;;;;;;;28.79;49.62;99963.31;6587210;27;34237;-86
2022/08/18 07:31:13;;;;;;;7.50;5.07;;;;;;;28.94;49.83;99962.16;6560862;27;35034;-86
2022/08/18 07:34:26;;;;;;;7.93;5.18;;;;;;;29.18;48.40;99974.97;6564001;27;33631;-86
2022/08/18 07:37:44;;;;;;;9.48;5.32;;;;;;;29.13;49.04;99970.34;6553008;27;34101;-86
2022/08/18 07:40:57;;;;;;;6.53;4.93;;;;;;;29.18;47.11;99969.41;6569574;27;34898;-86
2022/08/18 07:44:08;;;;;;;5.87;4.47;;;;;;;29.38;46.71;99969.75;6535393;27;32356;-86
2022/08/18 07:47:25;;;;;;;7.65;4.90;;;;;;;29.52;45.53;99969.72;6556112;27;35439;-86
2022/08/18 07:50:37;;;;;;;6.03;5.00;;;;;;;29.42;45.34;99966.34;6552063;27;32601;-86
2022/08/18 07:54:18;;;;;;;6.60;5.15;;;;;;;29.61;45.18;99962.28;6563583;27;35448;-87
2022/08/18 07:57:50;;;;;;;8.80;5.07;;;;;;;29.75;44.65;99967.78;6553379;27;35309;-86
2022/08/18 08:01:17;;;;;;;5.97;5.03;;;;;;;29.75;44.67;99967.78;6553465;27;33946;-85
2022/08/18 08:04:41;;;;;;;13.85;5.72;;;;;;;29.83;44.63;99971.75;6528215;27;33000;-84
2022/08/18 08:08:01;;;;;;;6.62;5.00;;;;;;;29.93;44.61;99982.59;6553796;27;33646;-86
2022/08/18 08:11:17;;;;;;;9.88;5.57;;;;;;;30.15;44.25;99983.69;6554234;27;34391;-86
2022/08/18 08:14:24;;;;;;;11.73;5.22;;;;;;;30.09;43.67;99983.00;6547174;27;34000;-85
2022/08/18 08:17:53;;;;;;;6.37;5.12;;;;;;;30.15;43.72;99992.03;6535283;27;32742;-86
2022/08/18 08:21:02;;;;;;;11.20;5.30;;;;;;;30.42;42.61;99997.44;6555632;27;34236;-88
2022/08/18 08:28:56;;;;;;;6.93;4.68;;;;;;;30.62;42.24;100003.53;6568725;27;34790;-85
2022/08/18 08:32:02;;;;;;;5.30;4.65;;;;;;;30.86;41.44;99995.66;6588030;27;34550;-86
2022/08/18 08:35:13;;;;;;;6.87;4.80;;;;;;;30.83;41.37;100006.56;6589026;27;34627;-86
2022/08/18 08:38:54;;;;;;;8.70;4.75;;;;;;;31.01;41.20;99997.16;6582078;27;34135;-86
2022/08/18 08:42:04;;;;;;;12.10;5.22;;;;;;;31.30;40.18;99999.34;6568212;27;32844;-90
2022/08/18 08:45:32;;;;;;;4.65;4.25;;;;;;;31.28;40.19;99990.47;6587192;27;34939;-85
2022/08/18 08:49:21;;;;;;;19.17;4.97;;;;;;;31.30;39.75;99990.97;6581080;27;33590;-87
2022/08/18 08:52:40;;;;;;;17.65;5.70;;;;;;;31.65;39.90;99979.03;6579296;27;34029;-84
2022/08/18 08:55:48;;;;;;;10.80;4.97;;;;;;;31.82;39.00;99977.03;6580881;27;33802;-85
2022/08/18 08:58:53;;;;;;;;;;;;;;;31.89;38.78;99982.12;6579436;27;34098;-86
2022/08/18 09:02:04;;;;;;;9.45;4.85;;;;;;;31.97;38.54;99974.91;6559495;27;35283;-85
2022/08/18 09:05:10;;;;;;;7.47;4.80;;;;;;;32.16;38.37;99969.81;6558980;27;32344;-85
2022/08/18 09:08:50;;;;;;;9.40;4.50;;;;;;;32.03;38.80;99973.59;6578386;27;33654;-85
2022/08/18 09:12:12;;;;;;;5.03;4.18;;;;;;;31.72;38.46;99968.25;6558534;27;33547;-86
2022/08/18 09:15:39;;;;;;;6.05;4.90;;;;;;;31.90;38.15;99960.69;6580040;27;34768;-85
2022/08/18 09:19:20;;;;;;;6.22;4.82;;;;;;;32.01;38.13;99960.03;6574011;27;32886;-85
2022/08/18 09:22:32;;;;;;;8.70;4.90;;;;;;;32.24;38.46;99960.59;6563282;27;33736;-85
2022/08/18 09:25:54;;;;;;;5.07;4.57;;;;;;;32.56;37.64;99950.00;6564205;27;32675;-86
2022/08/18 09:29:26;;;;;;;5.32;4.18;;;;;;;32.75;36.02;99944.78;6578805;27;34083;-86
2022/08/18 09:33:18;;;;;;;4.65;4.03;;;;;;;32.82;34.52;99940.66;6559359;27;32584;-86
2022/08/18 09:36:59;;;;;;;6.37;4.30;;;;;;;32.99;34.92;99948.13;6578491;27;32629;-86
2022/08/18 09:44:10;;;;;;;7.72;4.20;;;;;;;33.24;34.03;99935.94;6579638;27;34101;-85
2022/08/18 09:47:28;;;;;;;6.95;4.62;;;;;;;33.28;33.47;99933.28;6579420;27;34087;-85
2022/08/18 09:50:36;;;;;;;7.28;4.30;;;;;;;33.41;33.53;99933.00;6560877;27;32832;-85
2022/08/18 09:53:46;;;;;;;6.05;4.37;;;;;;;33.53;32.53;99931.47;6583790;27;35291;-89
2022/08/18 09:56:49;;;;;;;5.20;3.35;;;;;;;33.58;32.28;99914.47;6572142;27;32207;-85
2022/08/18 10:00:03;;;;;;;5.82;3.92;;;;;;;33.46;32.74;99909.66;6575772;27;33538;-86
2022/08/18 10:03:23;;;;;;;8.02;4.00;;;;;;;33.55;34.27;99896.47;6570113;27;34016;-85
2022/08/18 10:06:28;;;;;;;5.00;3.95;;;;;;;33.69;32.85;99884.97;6559550;27;32826;-85
2022/08/18 10:09:53;;;;;;;4.12;3.62;;;;;;;33.88;32.31;99876.06;6578281;27;33928;-85
2022/08/18 10:13:05;;;;;;;5.28;3.58;;;;;;;34.30;32.07;99875.88;6550498;27;33862;-85
2022/08/18 10:16:08;;;;;;;4.68;3.85;;;;;;;34.23;31.72;99875.66;6558855;27;32525;-85
2022/08/18 10:19:59;;;;;;;5.47;3.85;;;;;;;34.24;31.46;99877.28;6550156;27;32563;-85
2022/08/18 10:23:04;;;;;;;4.00;3.60;;;;;;;34.30;31.81;99873.09;6579777;27;34202;-85
2022/08/18 10:26:29;;;;;;;7.68;3.80;;;;;;;34.62;31.23;99873.31;6558932;27;32245;-85
2022/08/18 10:29:52;;;;;;;4.62;3.28;;;;;;;34.88;30.55;99872.91;6527256;27;32396;-89
2022/08/18 10:32:56;;;;;;;6.40;3.60;;;;;;;35.08;29.97;99877.53;6584251;27;34001;-85
2022/08/18 10:35:59;;;;;;;8.80;3.78;;;;;;;35.03;30.07;99865.75;6583258;27;33539;-85
2022/08/18 10:39:10;;;;;;;5.68;3.30;;;;;;;35.29;29.55;99876.53;6580222;27;34663;-85
2022/08/18 10:42:36;;;;;;;3.78;3.30;;;;;;;35.41;29.23;99870.87;6572379;27;34182;-85
2022/08/18 10:45:46;;;;;;;5.40;3.65;;;;;;;35.71;28.34;99871.31;6558519;27;33350;-84
2022/08/18 10:49:12;;;;;;;13.80;4.22;;;;;;;35.70;28.56;99872.50;6578592;27;34477;-86
2022/08/18 10:52:28;;;;;;;4.87;3.60;;;;;;;36.10;28.23;99854.72;6558284;27;32346;-85
2022/08/18 10:55:55;;;;;;;32.05;4.53;;;;;;;36.43;27.74;99853.50;6558084;27;32446;-85
2022/08/18 10:59:19;;;;;;;5.68;2.90;;;;;;;36.73;27.30;99851.00;6558558;27;32642;-86
2022/08/18 11:03:07;;;;;;;21.27;4.18;;;;;;;37.26;26.28;99850.50;6578833;27;34110;-90
2022/08/18 11:06:40;;;;;;;4.90;3.25;;;;;;;37.35;26.22;99851.88;6578261;27;33608;-85
2022/08/18 11:09:43;;;;;;;27.50;4.50;;;;;;;37.57;25.40;99855.97;6558334;27;32321;-86
2022/08/18 11:13:27;;;;;;;3.85;2.90;;;;;;;37.77;24.43;99850.28;6581876;27;34745;-86
2022/08/18 11:16:51;;;;;;;5.43;2.65;;;;;;;38.20;23.97;99842.59;6569691;27;32284;-86
2022/08/18 11:19:59;;;;;;;3.15;2.60;;;;;;;38.88;22.54;99835.97;6584316;27;34086;-87
2022/08/18 11:23:03;;;;;;;6.95;2.83;;;;;;;39.20;21.31;99829.94;6559019;27;33132;-86
2022/08/18 11:26:14;;;;;;;5.00;2.72;;;;;;;39.62;20.59;99825.94;6578621;27;33563;-86
2022/08/18 11:29:22;;;;;;;3.58;2.67;;;;;;;39.67;20.30;99828.41;6578745;27;33564;-90
2022/08/18 11:32:31;;;;;;;2.60;2.40;;;;;;;39.49;20.11;99825.44;6581759;27;34419;-87
2022/08/18 11:35:49;;;;;;;3.78;2.50;;;;;;;39.76;19.63;99817.66;6584556;27;33811;-86
2022/08/18 11:38:54;;;;;;;3.50;3.10;;;;;;;40.47;19.75;99808.09;6560987;27;32680;-86
2022/08/18 11:41:58;;;;;;;3.00;2.40;;;;;;;41.58;19.08;99809.34;6558497;27;32436;-86
2022/08/18 11:45:17;;;;;;;3.97;2.15;;;;;;;42.46;17.42;99792.72;6562160;27;32447;-85
2022/08/18 11:48:25;;;;;;;9.77;2.70;;;;;;;43.68;16.08;99792.91;6594426;27;31986;-86
2022/08/18 11:51:53;;;;;;;2.45;2.25;;;;;;;44.06;16.13;99792.22;6560028;27;32635;-86
2022/08/18 11:55:03;;;;;;;5.68;2.50;;;;;;;44.34;15.50;99779.75;6578588;27;33871;-86
2022/08/18 11:58:39;;;;;;;3.53;2.22;;;;;;;44.76;14.99;99784.16;6557576;27;32969;-86
2022/08/18 12:01:53;;;;;;;2.87;2.55;;;;;;;45.19;14.35;99789.22;6557501;27;33798;-86
2022/08/18 12:05:01;;;;;;;3.03;2.55;;;;;;;45.54;14.99;99789.13;6578005;27;34358;-86
2022/08/18 12:08:21;;;;;;;5.10;2.53;;;;;;;44.94;15.33;99785.94;6577972;27;33609;-89
2022/08/18 12:11:49;;;;;;;9.70;2.80;;;;;;;45.66;14.75;99772.28;6578409;27;34037;-86
2022/08/18 12:15:02;;;;;;;3.03;2.33;;;;;;;47.02;14.04;99761.09;6561925;27;34270;-86
2022/08/18 12:18:18;;;;;;;2.60;2.10;;;;;;;46.86;14.09;99751.69;6580656;27;34094;-86
2022/08/18 12:21:30;;;;;;;2.55;2.10;;;;;;;46.60;14.35;99748.53;6557814;27;33037;-85
2022/08/18 12:24:33;;;;;;;3.20;2.67;;;;;;;46.56;14.47;99745.00;6578126;27;34757;-86
2022/08/18 12:27:41;;;;;;;3.97;2.58;;;;;;;46.31;14.62;99732.09;6578788;27;34829;-85
2022/08/18 12:30:46;;;;;;;2.80;2.17;;;;;;;47.23;14.18;99733.34;6579647;27;34398;-85
2022/08/18 12:33:48;;;;;;;4.72;2.40;;;;;;;47.69;13.35;99719.97;6560330;27;32884;-86
2022/08/18 12:37:04;;;;;;;5.37;3.17;;;;;;;48.42;13.05;99713.91;6564767;27;32119;-86
2022/08/18 12:40:27;;;;;;;3.37;2.30;;;;;;;48.63;12.70;99710.41;6587609;26;34492;-86
2022/08/18 12:43:31;;;;;;;2.78;2.58;;;;;;;48.45;12.80;99713.00;6586270;27;35134;-87
2022/08/18 12:46:35;;;;;;;3.40;2.55;;;;;;;47.95;13.05;99717.25;6559254;27;34148;-86
2022/08/18 12:49:38;;;;;;;2.40;2.20;;;;;;;48.93;12.37;99719.72;6579246;27;34484;-86
2022/08/18 12:52:41;;;;;;;7.55;2.30;;;;;;;48.84;12.42;99723.22;6579873;27;34180;-86
2022/08/18 12:55:45;;;;;;;4.43;2.80;;;;;;;48.63;12.52;99729.63;6580219;27;33997;-86
2022/08/18 12:58:52;;;;;;;2.90;2.20;;;;;;;49.29;12.20;99730.00;6593675;27;34078;-86
2022/08/18 13:01:55;;;;;;;4.55;2.00;;;;;;;49.32;11.94;99734.78;6594498;27;36080;-89
2022/08/18 13:05:02;;;;;;;4.50;2.10;;;;;;;50.27;11.55;99731.88;6574508;27;32096;-90
2022/08/18 13:08:15;;;;;;;5.93;2.45;;;;;;;51.01;11.15;99739.69;6571324;27;33174;-87
2022/08/18 13:11:32;;;;;;;6.65;2.33;;;;;;;50.58;11.36;99740.53;6575012;27;34009;-86
2022/08/18 13:14:36;;;;;;;3.25;2.50;;;;;;;50.50;11.09;99731.44;6594008;27;34274;-86
2022/08/18 13:17:44;;;;;;;3.05;2.25;;;;;;;50.34;11.15;99743.88;6579396;27;35145;-86
2022/08/18 13:20:50;;;;;;;8.27;2.78;;;;;;;49.79;11.43;99754.03;6558685;27;32212;-86
2022/08/18 13:23:53;;;;;;;2.37;2.10;;;;;;;49.17;11.67;99743.81;6579549;27;33840;-85
2022/08/18 13:26:56;;;;;;;36.75;4.53;;;;;;;49.68;11.41;99751.59;6579275;27;34226;-86
2022/08/18 13:29:59;;;;;;;4.70;1.90;;;;;;;50.05;11.30;99755.56;6579576;27;34122;-86
2022/08/18 13:33:03;;;;;;;9.98;2.42;;;;;;;50.49;10.89;99754.81;6578957;27;34334;-85
2022/08/18 13:36:43;;;;;;;4.65;2.25;;;;;;;50.44;11.15;99756.22;6578611;27;34491;-86
2022/08/18 13:39:48;;;;;;;2.58;2.33;;;;;;;50.24;10.99;99753.66;6579054;27;33961;-86
2022/08/18 13:42:54;;;;;;;3.55;2.00;;;;;;;50.48;10.97;99738.88;6580023;27;35164;-85
2022/08/18 13:45:58;;;;;;;2.42;2.15;;;;;;;49.98;11.32;99738.66;6561515;27;32721;-85
2022/08/18 13:49:03;;;;;;;5.07;2.47;;;;;;;50.46;11.15;99732.81;6566939;27;32553;-85
2022/08/18 13:52:09;;;;;;;3.35;2.33;;;;;;;49.45;11.62;99739.25;6584484;27;34871;-85
2022/08/18 13:55:32;;;;;;;10.25;2.87;;;;;;;48.86;11.72;99742.81;6579179;27;33852;-85
2022/08/18 13:58:37;;;;;;;4.05;2.58;;;;;;;49.60;11.53;99742.44;6559282;27;32988;-85
2022/08/18 14:01:54;;;;;;;7.82;2.75;;;;;;;49.23;11.67;99741.22;6559159;27;32756;-86
2022/08/18 14:04:58;;;;;;;2.83;2.53;;;;;;;49.19;12.23;99741.31;6559403;27;32428;-86
2022/08/18 14:08:01;;;;;;;5.53;2.60;;;;;;;48.96;12.04;99738.81;6579061;27;34084;-86
2022/08/18 14:11:04;;;;;;;2.97;2.50;;;;;;;48.26;12.51;99741.25;6559707;27;32607;-86
2022/08/18 14:14:07;;;;;;;10.07;2.70;;;;;;;48.29;12.43;99739.56;6581900;27;33715;-86
2022/08/18 14:17:09;;;;;;;4.60;2.70;;;;;;;45.38;14.75;99747.94;6585286;27;34180;-85
2022/08/18 14:26:54;;;;;;;3.83;2.75;;;;;;;40.61;19.53;99745.28;6571694;27;33135;-85
2022/08/18 14:30:00;;;;;;;25.85;3.47;;;;;;;39.83;20.11;99750.06;6579908;27;34140;-85
2022/08/18 14:33:06;;;;;;;4.85;3.00;;;;;;;39.48;20.56;99763.84;6563163;27;32732;-84
2022/08/18 14:36:15;;;;;;;4.57;2.87;;;;;;;39.21;20.86;99752.69;6582986;27;34034;-84
2022/08/18 14:39:20;;;;;;;5.30;3.05;;;;;;;39.12;20.60;99758.63;6580918;27;33966;-85
2022/08/18 14:42:25;;;;;;;3.72;2.95;;;;;;;38.71;21.07;99758.56;6583502;27;34756;-85
2022/08/18 14:45:47;;;;;;;3.70;3.10;;;;;;;38.60;21.44;99757.59;6579471;27;34251;-84
2022/08/18 14:48:51;;;;;;;4.32;3.25;;;;;;;38.51;21.34;99760.72;6579332;27;34012;-85
2022/08/18 14:51:53;;;;;;;8.68;3.45;;;;;;;38.17;21.47;99767.44;6580179;27;33740;-85
2022/08/18 14:54:58;;;;;;;4.05;3.40;;;;;;;38.01;21.46;99762.78;6578883;27;34578;-85
2022/08/18 14:58:00;;;;;;;6.50;3.58;;;;;;;37.81;21.43;99750.81;6581119;27;33625;-87
2022/08/18 15:01:06;;;;;;;5.85;3.60;;;;;;;37.56;21.98;99750.41;6580141;27;34276;-86
2022/08/18 15:04:15;;;;;;;5.72;3.50;;;;;;;37.36;22.75;99757.25;6580417;27;33918;-87
2022/08/18 15:07:21;;;;;;;5.55;3.30;;;;;;;37.29;22.61;99754.31;6560791;27;32811;-87
2022/08/18 15:10:26;;;;;;;6.80;3.10;;;;;;;37.27;22.59;99742.63;6581869;27;34313;-91
2022/08/18 15:13:31;;;;;;;3.75;3.05;;;;;;;37.09;23.01;99748.75;6581489;27;34569;-92
2022/08/18 15:16:33;;;;;;;4.30;3.45;;;;;;;36.96;22.86;99744.44;6582489;27;34019;-91
2022/08/18 15:19:42;;;;;;;4.53;3.33;;;;;;;36.76;23.20;99738.84;6565122;27;32995;-88
2022/08/18 15:26:31;;;;;;;7.75;3.37;;;;;;;36.38;23.47;99747.25;6581185;27;34837;-87
2022/08/18 15:29:36;;;;;;;4.60;3.40;;;;;;;36.32;23.75;99746.72;6580477;27;34938;-87
